WetterOnline ( https://www.wetteronline.de )

Wetter aktuell Magdeburg

Aktuelles Wetter: Magdeburg (85m)

6-stündlich | Neueste Meldungen
Ortszeit Temperatur Wetter
Di, 18.06. 14:00 24.5° C wolkig
Di, 18.06. 8:00 19.1° C leicht bewölkt
Di, 18.06. 2:00 15.2° C wolkig
Mo, 17.06. 20:00 21.1° C wolkig
Mo, 17.06. 14:00 22.0° C wolkig
Mo, 17.06. 8:00 18.1° C wolkig
Mo, 17.06. 2:00 14.5° C wolkig
So, 16.06. 20:00 21.4° C bedeckt
Ortszeit Temperatur Wetter
Di, 18.06. 19:30 20.5° C bedeckt
Di, 18.06. 19:20 20.5° C bedeckt
Di, 18.06. 19:10 20.5° C bewölkt
Di, 18.06. 19:00 20.5° C bewölkt
Di, 18.06. 18:50 20.5° C bewölkt
Di, 18.06. 18:40 20.7° C bedeckt
Di, 18.06. 18:30 20.5° C bedeckt
Di, 18.06. 18:00 20.4° C Regen
Di, 18.06. 17:30 20.8° C Regen
Di, 18.06. 17:00 25.1° C bewölkt
Di, 18.06. 16:30 25.7° C bewölkt
Ortszeit Relative Feuchte Sichtweite
Di, 18.06. 14:00 56% 45 km
Di, 18.06. 8:00 78% 45 km
Di, 18.06. 2:00 93% 40 km
Mo, 17.06. 20:00 71% >70 km
Mo, 17.06. 14:00 57% 55 km
Mo, 17.06. 8:00 67% 65 km
Mo, 17.06. 2:00 80% >70 km
So, 16.06. 20:00 47% 65 km
Ortszeit Relative Feuchte Sichtweite
Di, 18.06. 19:30 85% 45 km
Di, 18.06. 19:20 85% -
Di, 18.06. 19:10 85% -
Di, 18.06. 19:00 86% 55 km
Di, 18.06. 18:50 86% -
Di, 18.06. 18:40 86% -
Di, 18.06. 18:30 85% 50 km
Di, 18.06. 18:00 83% 55 km
Di, 18.06. 17:30 82% 6 km
Di, 18.06. 17:00 53% 65 km
Di, 18.06. 16:30 50% >70 km
Ortszeit Niederschlagsmenge Niederschlagsart
Di, 18.06. 14:00 0.0 l/m2 in 6 Std. -
Di, 18.06. 8:00 0.0 l/m2 in 12 Std. -
Di, 18.06. 2:00 0.0 l/m2 in 6 Std. -
Mo, 17.06. 20:00 4 l/m2 in 12 Std. Regen, Niederschlag
Mo, 17.06. 14:00 0.0 l/m2 in 6 Std. -
Mo, 17.06. 8:00 0.0 l/m2 in 12 Std. -
Mo, 17.06. 2:00 0.0 l/m2 in 6 Std. -
So, 16.06. 20:00 0.1 l/m2 in 12 Std. Regen
Ortszeit Niederschlagsmenge Niederschlagsart
Di, 18.06. 19:30 0.0 l/m2 in 30 Min -
Di, 18.06. 19:20 keine Meldung -
Di, 18.06. 19:10 keine Meldung -
Di, 18.06. 19:00 0.0 l/m2 in 1 Std. -
Di, 18.06. 18:50 keine Meldung -
Di, 18.06. 18:40 keine Meldung -
Di, 18.06. 18:30 0.0 l/m2 in 30 Min -
Di, 18.06. 18:00 2.8 l/m2 in 1 Std. Regen
Di, 18.06. 17:30 1.7 l/m2 in 30 Min -
Di, 18.06. 17:00 0.0 l/m2 in 1 Std. -
Di, 18.06. 16:30 0.0 l/m2 in 30 Min -
Ortszeit Stärke Spitze Richtung
km/h Bft. km/h Grad Sektor
Di, 18.06. 14:00 7 2 18 150° SO
Di, 18.06. 8:00 4 1 11 310° NW
Di, 18.06. 2:00 4 1 14 200° S
Mo, 17.06. 20:00 7 2 32 210° SW
Mo, 17.06. 14:00 11 2 26 140° SO
Mo, 17.06. 8:00 7 2 18 190° S
Mo, 17.06. 2:00 7 2 22 210° SW
So, 16.06. 20:00 11 2 35 210° SW
Ortszeit Stärke Spitze Richtung
km/h Bft. km/h Grad Sektor
Di, 18.06. 19:30 4 1 18 170° S
Di, 18.06. 19:20 4 1 - 170° S
Di, 18.06. 19:10 4 1 - 200° S
Di, 18.06. 19:00 9 2 19 140° SO
Di, 18.06. 18:50 9 2 - 140° SO
Di, 18.06. 18:40 4 1 - 140° SO
Di, 18.06. 18:30 4 1 14 170° S
Di, 18.06. 18:00 11 2 28 140° SO
Di, 18.06. 17:30 9 2 22 150° SO
Di, 18.06. 17:00 7 2 18 150° SO
Di, 18.06. 16:30 7 2 18 130° SO
Ortszeit Untergrenze Bedeckung Gattung
total tief tief mittel hoch
Di, 18.06. 14:00 1410 m 5/8 5/8 - - -
Di, 18.06. 8:00 6600 m 3/8 3/8 - - -
Di, 18.06. 2:00 2400 m 8/8 3/8 - - -
Mo, 17.06. 20:00 2700 m 7/8 3/8 - - -
Mo, 17.06. 14:00 1140 m 5/8 4/8 - - -
Mo, 17.06. 8:00 2700 m 8/8 2/8 - - -
Mo, 17.06. 2:00 4500 m 5/8 5/8 - - -
So, 16.06. 20:00 3000 m 8/8 8/8 - - -
Ortszeit Bedeckungsgrad in Achtel und Wolkenuntergrenze
Di, 18.06. 19:30 8(2100m)
Di, 18.06. 19:20 8(2100m)
Di, 18.06. 19:10 7
Di, 18.06. 19:00 6(2400m) 7(2700m)
Di, 18.06. 18:50 6(2400m) 7(2700m)
Di, 18.06. 18:40 8
Di, 18.06. 18:30 8(3000m) 8(3900m) 8(6000m)
Di, 18.06. 18:00 1(1470m) 7(3000m)
Di, 18.06. 17:30 2(1500m) 7(2100m) 7(2700m)
Di, 18.06. 17:00 4(2100m) 6(3000m) 8(4500m)
Di, 18.06. 16:30 5(4800m) 7(5400m)
Ortszeit Luftdruck NN (hPa) Tendenz (hPa in 3 Std.)
Di, 18.06. 14:00 1014 - 1,5
Di, 18.06. 8:00 1016 + 0,6
Di, 18.06. 2:00 1015 + 0,7
Mo, 17.06. 20:00 1013 0,0
Mo, 17.06. 14:00 1012 + 0,1
Mo, 17.06. 8:00 1012 + 0,4
Mo, 17.06. 2:00 1011 + 0,8
So, 16.06. 20:00 1008 + 0,1
Ortszeit Luftdruck NN (hPa) Tendenz (hPa in 3 Std.)
Di, 18.06. 19:30 1011 - 1,7
Di, 18.06. 19:20 1011 keine Meldung
Di, 18.06. 19:10 1011 keine Meldung
Di, 18.06. 19:00 1010 - 2,6
Di, 18.06. 18:50 1010 keine Meldung
Di, 18.06. 18:40 1011 keine Meldung
Di, 18.06. 18:30 1011 - 1,8
Di, 18.06. 18:00 1011 - 2,2
Di, 18.06. 17:30 1012 - 1,8
Di, 18.06. 17:00 1012 - 1,9
Di, 18.06. 16:30 1012 - 2,3
Ortszeit Schneehöhe (cm)
Di, 18.06. 14:00 0
Di, 18.06. 8:00 0
Di, 18.06. 2:00 0
Mo, 17.06. 20:00 0
Mo, 17.06. 14:00 0
Mo, 17.06. 8:00 0
Mo, 17.06. 2:00 0
So, 16.06. 20:00 0
Ortszeit Schneehöhe (cm)
Di, 18.06. 19:30 0
Di, 18.06. 19:20 0
Di, 18.06. 19:10 -
Di, 18.06. 19:00 0
Di, 18.06. 18:50 0
Di, 18.06. 18:40 -
Di, 18.06. 18:30 0
Di, 18.06. 18:00 0
Di, 18.06. 17:30 0
Di, 18.06. 17:00 0
Di, 18.06. 16:30 0
Link zu dieser Seite / Seite empfehlen

Das Wetter in ...